sensor_id;sensor_type;location;lat;lon;timestamp;P1;durP1;ratioP1;P2;durP2;ratioP2
57333;SDS011;43165;50.998;18.164;2022-10-31T00:03:52;5.50;;;4.70;;
57333;SDS011;43165;50.998;18.164;2022-10-31T00:13:36;18.70;;;15.10;;
57333;SDS011;43165;50.998;18.164;2022-10-31T00:30:41;69.30;;;11.20;;
57333;SDS011;43165;50.998;18.164;2022-10-31T00:47:39;34.10;;;15.90;;
57333;SDS011;43165;50.998;18.164;2022-10-31T00:57:22;172.20;;;20.10;;
57333;SDS011;43165;50.998;18.164;2022-10-31T01:07:04;43.10;;;7.80;;
57333;SDS011;43165;50.998;18.164;2022-10-31T01:16:46;18.30;;;10.20;;
57333;SDS011;43165;50.998;18.164;2022-10-31T01:26:29;176.30;;;12.70;;
57333;SDS011;43165;50.998;18.164;2022-10-31T01:36:22;35.50;;;12.20;;
57333;SDS011;43165;50.998;18.164;2022-10-31T01:46:22;16.70;;;11.90;;
57333;SDS011;43165;50.998;18.164;2022-10-31T01:56:06;81.20;;;13.00;;
57333;SDS011;43165;50.998;18.164;2022-10-31T02:05:49;20.30;;;13.40;;
57333;SDS011;43165;50.998;18.164;2022-10-31T02:15:38;9.60;;;8.60;;
57333;SDS011;43165;50.998;18.164;2022-10-31T02:37:12;9.90;;;6.60;;
57333;SDS011;43165;50.998;18.164;2022-10-31T02:47:34;44.90;;;9.10;;
57333;SDS011;43165;50.998;18.164;2022-10-31T02:57:44;37.90;;;12.60;;
57333;SDS011;43165;50.998;18.164;2022-10-31T03:07:41;27.50;;;13.90;;
57333;SDS011;43165;50.998;18.164;2022-10-31T03:18:43;40.80;;;15.90;;
57333;SDS011;43165;50.998;18.164;2022-10-31T03:28:31;12.20;;;9.70;;
57333;SDS011;43165;50.998;18.164;2022-10-31T03:38:20;9.30;;;4.70;;
57333;SDS011;43165;50.998;18.164;2022-10-31T03:48:07;5.00;;;2.90;;
57333;SDS011;43165;50.998;18.164;2022-10-31T04:05:25;19.10;;;13.60;;
57333;SDS011;43165;50.998;18.164;2022-10-31T04:15:13;11.30;;;9.60;;
57333;SDS011;43165;50.998;18.164;2022-10-31T04:24:57;17.20;;;12.60;;
57333;SDS011;43165;50.998;18.164;2022-10-31T04:34:39;21.40;;;13.70;;
57333;SDS011;43165;50.998;18.164;2022-10-31T04:44:21;10.50;;;9.60;;
57333;SDS011;43165;50.998;18.164;2022-10-31T05:08:35;12.10;;;10.90;;
57333;SDS011;43165;50.998;18.164;2022-10-31T05:18:18;31.80;;;15.30;;
57333;SDS011;43165;50.998;18.164;2022-10-31T05:28:00;18.00;;;11.00;;
57333;SDS011;43165;50.998;18.164;2022-10-31T05:45:17;14.30;;;12.50;;
57333;SDS011;43165;50.998;18.164;2022-10-31T05:55:31;6.60;;;6.20;;
57333;SDS011;43165;50.998;18.164;2022-10-31T06:05:24;25.30;;;10.30;;
57333;SDS011;43165;50.998;18.164;2022-10-31T06:15:07;23.60;;;11.30;;
57333;SDS011;43165;50.998;18.164;2022-10-31T06:24:51;15.00;;;11.90;;
57333;SDS011;43165;50.998;18.164;2022-10-31T06:34:35;12.00;;;11.00;;
57333;SDS011;43165;50.998;18.164;2022-10-31T06:51:32;27.30;;;14.80;;
57333;SDS011;43165;50.998;18.164;2022-10-31T07:01:15;20.10;;;17.10;;
57333;SDS011;43165;50.998;18.164;2022-10-31T07:10:57;24.80;;;12.50;;
57333;SDS011;43165;50.998;18.164;2022-10-31T07:20:42;19.60;;;13.80;;
57333;SDS011;43165;50.998;18.164;2022-10-31T07:30:25;36.30;;;16.90;;
57333;SDS011;43165;50.998;18.164;2022-10-31T07:47:29;32.00;;;20.50;;
57333;SDS011;43165;50.998;18.164;2022-10-31T07:57:11;32.50;;;9.90;;
57333;SDS011;43165;50.998;18.164;2022-10-31T08:06:53;26.90;;;18.30;;
57333;SDS011;43165;50.998;18.164;2022-10-31T08:16:35;34.40;;;19.50;;
57333;SDS011;43165;50.998;18.164;2022-10-31T08:26:17;31.50;;;21.50;;
57333;SDS011;43165;50.998;18.164;2022-10-31T08:36:00;21.80;;;17.50;;
57333;SDS011;43165;50.998;18.164;2022-10-31T08:45:44;26.10;;;19.60;;
57333;SDS011;43165;50.998;18.164;2022-10-31T08:55:35;6.50;;;6.00;;
57333;SDS011;43165;50.998;18.164;2022-10-31T09:12:40;16.40;;;14.80;;
57333;SDS011;43165;50.998;18.164;2022-10-31T09:22:23;16.50;;;14.80;;
57333;SDS011;43165;50.998;18.164;2022-10-31T09:32:05;8.60;;;7.90;;
57333;SDS011;43165;50.998;18.164;2022-10-31T09:52:26;23.00;;;12.00;;
57333;SDS011;43165;50.998;18.164;2022-10-31T10:09:42;7.10;;;6.50;;
57333;SDS011;43165;50.998;18.164;2022-10-31T10:37:41;19.40;;;11.60;;
57333;SDS011;43165;50.998;18.164;2022-10-31T10:48:34;31.10;;;12.20;;
57333;SDS011;43165;50.998;18.164;2022-10-31T10:59:04;25.40;;;11.10;;
57333;SDS011;43165;50.998;18.164;2022-10-31T11:06:22;31.80;;;13.50;;
57333;SDS011;43165;50.998;18.164;2022-10-31T11:16:09;14.10;;;3.70;;
57333;SDS011;43165;50.998;18.164;2022-10-31T11:36:00;16.50;;;9.40;;
57333;SDS011;43165;50.998;18.164;2022-10-31T11:45:56;9.60;;;8.80;;
57333;SDS011;43165;50.998;18.164;2022-10-31T11:56:05;9.50;;;7.10;;
57333;SDS011;43165;50.998;18.164;2022-10-31T12:06:14;12.00;;;7.80;;
57333;SDS011;43165;50.998;18.164;2022-10-31T12:16:32;21.50;;;8.80;;
57333;SDS011;43165;50.998;18.164;2022-10-31T12:26:51;14.50;;;7.90;;
57333;SDS011;43165;50.998;18.164;2022-10-31T13:18:06;18.40;;;8.60;;
57333;SDS011;43165;50.998;18.164;2022-10-31T13:28:04;12.90;;;8.20;;
57333;SDS011;43165;50.998;18.164;2022-10-31T13:48:57;14.30;;;7.40;;
57333;SDS011;43165;50.998;18.164;2022-10-31T13:58:58;18.90;;;7.20;;
57333;SDS011;43165;50.998;18.164;2022-10-31T14:16:58;5.90;;;5.50;;
57333;SDS011;43165;50.998;18.164;2022-10-31T14:26:53;19.30;;;6.00;;
57333;SDS011;43165;50.998;18.164;2022-10-31T14:57:19;21.60;;;11.80;;
57333;SDS011;43165;50.998;18.164;2022-10-31T15:25:18;74.30;;;31.80;;
57333;SDS011;43165;50.998;18.164;2022-10-31T15:35:10;67.60;;;28.50;;
57333;SDS011;43165;50.998;18.164;2022-10-31T15:45:16;46.50;;;20.70;;
57333;SDS011;43165;50.998;18.164;2022-10-31T15:55:19;14.20;;;10.10;;
57333;SDS011;43165;50.998;18.164;2022-10-31T16:05:32;43.10;;;13.00;;
57333;SDS011;43165;50.998;18.164;2022-10-31T16:15:22;24.60;;;14.70;;
57333;SDS011;43165;50.998;18.164;2022-10-31T16:33:05;177.80;;;68.70;;
57333;SDS011;43165;50.998;18.164;2022-10-31T16:43:03;141.80;;;48.50;;
57333;SDS011;43165;50.998;18.164;2022-10-31T16:53:05;66.00;;;31.20;;
57333;SDS011;43165;50.998;18.164;2022-10-31T17:02:52;156.90;;;61.20;;
57333;SDS011;43165;50.998;18.164;2022-10-31T17:12:37;39.60;;;16.80;;
57333;SDS011;43165;50.998;18.164;2022-10-31T17:22:21;87.70;;;39.50;;
57333;SDS011;43165;50.998;18.164;2022-10-31T17:32:03;22.80;;;10.60;;
57333;SDS011;43165;50.998;18.164;2022-10-31T17:41:49;33.60;;;22.70;;
57333;SDS011;43165;50.998;18.164;2022-10-31T17:51:33;8.50;;;7.90;;
57333;SDS011;43165;50.998;18.164;2022-10-31T18:08:33;9.00;;;8.30;;
57333;SDS011;43165;50.998;18.164;2022-10-31T18:18:21;27.80;;;17.40;;
57333;SDS011;43165;50.998;18.164;2022-10-31T18:28:04;15.60;;;12.40;;
57333;SDS011;43165;50.998;18.164;2022-10-31T18:45:04;47.60;;;23.10;;
57333;SDS011;43165;50.998;18.164;2022-10-31T18:54:47;21.20;;;13.40;;
57333;SDS011;43165;50.998;18.164;2022-10-31T19:04:29;37.80;;;16.30;;
57333;SDS011;43165;50.998;18.164;2022-10-31T19:14:14;33.30;;;18.50;;
57333;SDS011;43165;50.998;18.164;2022-10-31T19:23:57;56.60;;;32.60;;
57333;SDS011;43165;50.998;18.164;2022-10-31T19:33:40;15.80;;;10.80;;
57333;SDS011;43165;50.998;18.164;2022-10-31T19:43:26;66.00;;;30.00;;
57333;SDS011;43165;50.998;18.164;2022-10-31T19:53:12;50.80;;;25.70;;
57333;SDS011;43165;50.998;18.164;2022-10-31T20:02:55;54.50;;;28.30;;
57333;SDS011;43165;50.998;18.164;2022-10-31T20:12:37;82.00;;;45.80;;
57333;SDS011;43165;50.998;18.164;2022-10-31T20:22:19;202.60;;;56.80;;
57333;SDS011;43165;50.998;18.164;2022-10-31T20:32:00;85.80;;;35.20;;
57333;SDS011;43165;50.998;18.164;2022-10-31T20:41:42;88.20;;;46.70;;
57333;SDS011;43165;50.998;18.164;2022-10-31T20:51:25;72.00;;;40.20;;
57333;SDS011;43165;50.998;18.164;2022-10-31T21:10:58;36.90;;;25.10;;
57333;SDS011;43165;50.998;18.164;2022-10-31T21:28:08;80.00;;;38.70;;
57333;SDS011;43165;50.998;18.164;2022-10-31T21:38:22;100.00;;;47.20;;
57333;SDS011;43165;50.998;18.164;2022-10-31T21:48:04;89.30;;;47.70;;
57333;SDS011;43165;50.998;18.164;2022-10-31T21:57:47;106.10;;;48.30;;
57333;SDS011;43165;50.998;18.164;2022-10-31T22:07:30;87.90;;;40.90;;
57333;SDS011;43165;50.998;18.164;2022-10-31T22:17:12;23.90;;;15.20;;
57333;SDS011;43165;50.998;18.164;2022-10-31T22:26:53;45.20;;;29.90;;
57333;SDS011;43165;50.998;18.164;2022-10-31T22:43:55;69.30;;;34.90;;
57333;SDS011;43165;50.998;18.164;2022-10-31T22:53:41;56.50;;;27.30;;
57333;SDS011;43165;50.998;18.164;2022-10-31T23:03:30;50.00;;;30.30;;
57333;SDS011;43165;50.998;18.164;2022-10-31T23:13:13;55.40;;;28.30;;
57333;SDS011;43165;50.998;18.164;2022-10-31T23:23:15;44.30;;;21.90;;
57333;SDS011;43165;50.998;18.164;2022-10-31T23:33:17;51.20;;;29.40;;
57333;SDS011;43165;50.998;18.164;2022-10-31T23:43:00;51.50;;;29.90;;
57333;SDS011;43165;50.998;18.164;2022-10-31T23:52:44;68.50;;;37.80;;
